821故障旗,SCT002

821/5140 出现MAP故障旗,MEL里没有找到,后来机务修好了
下午9547/2833机长孙**,说SCT002不够标准,妈的。真是帮泽册老了。
METAR ZUCK 180700Z VRB01MPS 1800 BR SCT002 SCT007 OVC040 12/12 Q1025 NOSIG=
哪能位的帮则各宗机长额啦,我说云底高是从BKN开始算的。他要我们找出书面内容,册呢。
FAA的Aviation Weather Services, Advisory Circular 00-45中有
For aviation purposes, the ceiling is defined as the height (AGL) of the lowest broken or overcast layer aloft or vertical visibility into an obscuration.
97部里有:
云高:云或遮蔽现象最底层距地面的高,这比现象用裂云,阴天,遮蔽表示,而不分薄云或者局部
以后再碰到这个机长,我要把这句话打印出来贴在他头上

发表评论